Tiempo atmosférico en la estación meteorológica de Cádiz, Cadiz (1 m.)



Fecha
DESCASC
Temp. máxima en grados centígrados (hora)
DESCASC
Temp. mínima en grados centígrados (hora)
DESCASC
Temp. media en grados centígrados
DESCASC
Racha de viento máxima en m/sg (hora)
DESCASC
Velocidad máxima media en intervalos de 10 minutos(hora)
DESCASC
Precipitaciones diarias en mm
DESCASC
Precipitaciones de 00:00 a 06:00 en mm
DESCASC
Precipitaciones de 06:00 a 12:00 en mm
DESCASC
Precipitaciones de 12:00 a 18:00 en mm
DESCASC
Precipitaciones de 18:00 a 24:00 en mm
DESCASC
08-12-2019 16.8 (13:10) 10.9 (08:20) 13.8 5.28 (16:30) 3.61 (15:10) 0 0 0 0 0
07-12-2019 18.7 (16:30) 11.7 (08:30) 15.2 7.22 (00:10) 5 (00:10) 0 0 0 0 0
06-12-2019 19.3 (14:30) 11.6 (08:00) 15.4 10.83 (13:10) 7.5 (13:20) 0 0 0 0 0
05-12-2019 18.4 (15:40) 8.6 (00:00) 13.5 6.94 (11:50) 5 (16:00) 0 0 0 0 0
04-12-2019 15.7 (00:10) 13.2 (00:00) 14.4 8.33 (08:20) 5.56 (09:10) 0 0 0 0 0
03-12-2019 17.2 (17:00) 11.7 (00:00) 14.5 8.33 (08:10) 6.39 (11:30) 0 0 0 0 0
02-12-2019 15.5 (12:20) 12.8 (00:00) 14.2 10 (15:40) 7.22 (16:50) 3.5 0.5 0.5 1.5 1
01-12-2019 18.5 (13:10) 14.5 (00:00) 16.5 8.89 (02:00) 5.83 (14:30) 1.2 0.8 0 0.4 0
30-11-2019 18.1 (16:40) 13.4 (00:00) 15.8 6.11 (00:50) 4.72 (00:40) 0 0 0 0 0
29-11-2019 18.6 (13:40) 12.5 (00:00) 15.6 5.83 (20:00) 3.89 (23:20) 0 0 0 0 0
28-11-2019 19.5 (15:20) 12.4 (00:00) 15.9 3.89 (16:50) 2.5 (16:10) 0.3 0.2 0.1 0 0
27-11-2019 18.2 (12:00) 15.1 (00:00) 16.7 8.89 (01:10) 4.72 (01:10) 1.4 1.4 0 0 0
26-11-2019 19.3 (14:50) 15.8 (00:00) 17.5 6.67 (23:20) 3.89 (23:20) 1 0 1 0 0
25-11-2019 19.1 (13:00) 13 (00:00) 16.1 6.67 (14:00) 3.89 (14:00) 0 0 0 0 0
24-11-2019 16.8 (16:10) 12.6 (00:00) 14.7 7.5 (00:10) 4.72 (01:20) 0 0 0 0 0
23-11-2019 17 (00:10) 13.5 (00:00) 15.3 14.72 (06:30) 8.61 (06:00) 0.6 0.1 0.5 0 0
22-11-2019 18.5 (17:00) 15.5 (00:00) 17 14.44 (19:20) 8.61 (19:20) 10.6 0.3 2.7 2.7 4.9
21-11-2019 17 (12:50) 14.4 (00:00) 15.7 6.67 (04:50) 3.89 (04:40) 15.1 5.4 1.7 6.8 1.2
20-11-2019 15.8 (17:20) 10.6 (00:00) 13.2 15 (14:20) 9.72 (13:40) 1.4 0 1.3 0 0.1
19-11-2019 17.4 (15:30) 10.5 (00:00) 13.9 3.61 (14:20) 1.94 (06:50) 0 0 0 0 0
18-11-2019 16.9 (01:40) 11.8 (00:00) 14.3 17.78 (06:30) 8.61 (05:00) 2 2 0 0 0
17-11-2019 17.8 (16:30) 10.7 (00:00) 14.2 9.72 (23:59) 5.56 (13:50) 1.1 0 0 1.1 0
16-11-2019 14.4 (23:10) 8.1 (00:00) 11.3 10.83 (02:20) 6.94 (00:10) 0 0 0 0 0
15-11-2019 14.6 (00:00) 12.4 (00:00) 13.5 11.94 (22:00) 7.78 (21:50) 0 0 0 0 0
14-11-2019 17.2 (10:20) 12.8 (00:00) 15 16.11 (13:40) 10 (13:40) 1.5 0 0.3 1.2 0
13-11-2019 19.3 (15:50) 15.9 (00:00) 17.6 8.89 (13:50) 5.28 (00:10) 0 0 0 0 0
12-11-2019 17.8 (16:50) 13.2 (00:00) 15.5 10.28 (02:30) 6.39 (02:50) 0 0 0 0 0
11-11-2019 18 (16:30) 13.5 (06:40) 15.8 13.33 (00:20) 7.5 (00:20) 0.1 0 0.1 0 0
10-11-2019 17.8 (15:50) 14.5 (00:00) 16.1 14.72 (18:30) 8.89 (18:50) 0 0 0 0 0

Gráficas

Temp. máximas Temp. mínimas Temp. medias Precipitaciones Rachas de viento máximas Velocidades máximas media en intervalos de 10 minutos

Datos horarios

Fecha y hora oficial Temperatura (ºC) Velocidad del viento (km/h) Dirección del viento Racha (km/h) Dirección de racha Precipitación (mm) Presión (hPa) Tendencia (hPa) Humedad (%)
2019-12-09 23:00:00 15.3 11 Noroeste 16 Noroeste 0 1028.4 0.2 81
2019-12-09 22:00:00 15.1 9 Noroeste 14 Noroeste 0 1028.7 0.4 82
2019-12-09 21:00:00 15.4 8 Noroeste 12 Noroeste 0 1028.7 0.7 84
2019-12-09 20:00:00 15.5 7 Noroeste 17 Noroeste 0 1028.2 0.3 90
2019-12-09 19:00:00 16.3 12 Noroeste 22 Noroeste 0 1028.3 0.3 86
2019-12-09 18:00:00 16.9 13 Noroeste 20 Noroeste 0 1028 -0.2 84
2019-12-09 17:00:00 17.3 10 Noroeste 20 Noroeste 0 1027.9 -0.9 82
2019-12-09 16:00:00 17.4 12 Noroeste 19 Noroeste 0 1028 -1.4 82
2019-12-09 15:00:00 17 11 Noroeste 19 Noroeste 0 1028.2 -2.1 84
2019-12-09 14:00:00 17.3 8 Noroeste 12 Noroeste 0 1028.8 -1.5 80
2019-12-09 13:00:00 17.1 4 Norte 7 Norte 0 1029.4 -0.4 82
2019-12-09 12:00:00 15.7 4 Noroeste 9 Norte 0 1030.3 1.2 84
2019-12-09 11:00:00 14 6 Norte 9 Norte 0 1030.3 1.7 91
2019-12-09 10:00:00 13.4 2 Norte 4 Nordeste 0 1029.8 1.9 92
2019-12-09 09:00:00 13.1 3 Nordeste 7 Nordeste 0 1029.1 1.4 94
2019-12-09 08:00:00 13.2 4 Norte 6 Norte 0 1028.6 1 95
2019-12-09 07:00:00 12.6 3 Este 5 Este 0 1027.9 0.2 93
2019-12-09 06:00:00 12.5 0 Calma 6 Norte 0 1027.7 0.1 94
2019-12-09 05:00:00 12.9 3 Este 5 Este 0 1027.6 -0.1 95
2019-12-09 04:00:00 12.9 0 Calma 3 Nordeste 0 1027.7 -0.3 94
2019-12-09 03:00:00 13.3 4 Sur 6 Sur 0 1027.6 -0.3 93
2019-12-09 02:00:00 13.5 4 Sudeste 5 Sudeste 0 1027.7 -0.3 93
2019-12-09 01:00:00 13.5 0 Calma 6 Sudeste 0 1028 0.3 94
2019-12-09 00:00:00 13.8 6 Este 7 Este 0 1027.9 0.5 93
2019-12-08 23:00:00 14 0 Calma 4 Este 0 1028 0.5 90
2019-12-08 22:00:00 14.6 2 Este 7 Noroeste 0 1027.7 0.7 88
2019-12-08 21:00:00 14.6 4 Noroeste 11 Noroeste 0 1027.4 0.9 85
2019-12-08 20:00:00 14.5 6 Noroeste 9 Oeste 0 1027.5 1.4 87
2019-12-08 19:00:00 14.4 7 Noroeste 16 Noroeste 0 1027 1.3 86
2019-12-08 18:00:00 14.4 10 Oeste 17 Oeste 0 1026.5 0.5 86
2019-12-08 17:00:00 14.5 11 Oeste 19 Oeste 0 1026.1 0.1 84
2019-12-08 16:00:00 14.4 8 Oeste 19 Oeste 0 1025.7 -1.3 82
2019-12-08 15:00:00 14.6 10 Oeste 17 Oeste 0 1026 -1.4 86
2019-12-08 14:00:00 15.8 8 Oeste 14 Oeste 0 1026 -1.6 81
2019-12-08 13:00:00 16.5 3 Sur 6 Sudoeste 0 1027 0.3 79
2019-12-08 12:00:00 15.1 4 Sudeste 6 Este 0 1027.4 1.2 83
2019-12-08 11:00:00 13 3 Norte 5 Nordeste 0 1027.6 2 89
2019-12-08 10:00:00 12.2 3 Nordeste 5 Nordeste 0 1026.7 1.4 91
2019-12-08 09:00:00 11.2 3 Nordeste 6 Este 0 1026.2 1.4 94
2019-12-08 08:00:00 11.1 4 Este 6 Este 0 1025.6 0.8 93
2019-12-08 07:00:00 11.2 0 Calma 4 Nordeste 0 1025.3 0.1 94
2019-12-08 06:00:00 11.5 0 Calma 6 Este 0 1024.8 -0.4 93
2019-12-08 05:00:00 11.9 4 Este 5 Este 0 1024.8 -0.2 90
2019-12-08 04:00:00 12.2 0 Calma 3 Este 0 1025.2 -0.1 92
2019-12-08 03:00:00 12.4 4 Este 10 Este 0 1025.2 -0.2 88
2019-12-08 02:00:00 13.2 2 Este 5 Este 0 1025 -0.1 87
2019-12-08 01:00:00 13.4 3 Norte 7 Noroeste 0 1025.3 0.4 85
2019-12-08 00:00:00 13.1 3 Norte 6 Nordeste 0 1025.4 0.8 88
2019-12-07 23:00:00 13.7 3 Nordeste 6 Nordeste 0 1025.1 1.3 84
2019-12-07 22:00:00 14.5 3 Norte 9 Norte 0 1024.9 1.5 86
2019-12-07 21:00:00 14.8 6 Norte 15 Noroeste 0 1024.6 1.7 82
2019-12-07 20:00:00 15.6 8 Norte 13 Noroeste 0 1023.8 1.6 77
2019-12-07 19:00:00 16.4 10 Noroeste 18 Noroeste 0 1023.4 1.5 76
2019-12-07 18:00:00 17.6 15 Noroeste 24 Noroeste 0 1022.9 1.2 60
2019-12-07 17:00:00 18.4 10 Noroeste 16 Noroeste 0 1022.2 -0.1 56
2019-12-07 16:00:00 18.5 11 Noroeste 17 Noroeste 0 1021.9 -1.2 59
2019-12-07 15:00:00 18 13 Noroeste 16 Noroeste 0 1021.7 -1.9 64
2019-12-07 14:00:00 17.2 7 Noroeste 10 Noroeste 0 1022.3 -1.3 66
2019-12-07 13:00:00 15.7 5 Noroeste 14 Norte 0 1023.1 0.2 72
2019-12-07 12:00:00 15.2 7 Norte 11 Norte 0 1023.6 1.5 74
2019-12-07 11:00:00 13.2 6 Norte 16 Norte 0 1023.6 2.2 81
2019-12-07 10:00:00 12.1 10 Norte 16 Norte 0 1022.9 1.7 82
2019-12-07 09:00:00 12.2 13 Norte 17 Norte 0 1022.1 1.3 83
2019-12-07 08:00:00 12 6 Norte 14 Norte 0 1021.4 0.5 84
2019-12-07 07:00:00 12 8 Nordeste 17 Nordeste 0 1021.2 0.5 83
2019-12-07 06:00:00 12.2 12 Nordeste 18 Nordeste 0 1020.8 0.2 82
2019-12-07 05:00:00 12.5 9 Norte 16 Nordeste 0 1020.9 0.2 83
2019-12-07 04:00:00 12.7 9 Norte 15 Norte 0 1020.7 0.2 83
2019-12-07 03:00:00 14.3 10 Norte 17 Norte 0 1020.6 0.2 81
2019-12-07 02:00:00 13.8 12 Norte 17 Nordeste 0 1020.7 0.6 81
2019-12-07 01:00:00 15 11 Nordeste 26 Este 0 1020.5 0.8 80
2019-12-07 00:00:00 15.3 18 Este 26 Este 0 1020.4 1 79
2019-12-06 23:00:00 15.4 16 Este 25 Este 0 1020.1 1 78
2019-12-06 22:00:00 15.6 17 Este 31 Este 0 1019.7 1 77
2019-12-06 21:00:00 15.7 22 Este 30 Este 0 1019.4 1.3 75
2019-12-06 20:00:00 16.2 17 Este 24 Este 0 1019.1 1.3 71
2019-12-06 19:00:00 16.5 11 Este 22 Este 0 1018.7 1.3 72
2019-12-06 18:00:00 17.3 19 Este 30 Este 0 1018.1 0.7 69
2019-12-06 17:00:00 18.4 24 Este 33 Este 0 1017.8 0.1 63
2019-12-06 16:00:00 18.6 24 Este 33 Este 0 1017.4 -0.9 64
2019-12-06 15:00:00 19.2 22 Este 34 Este 0 1017.4 -1.6 63
2019-12-06 14:00:00 18.9 22 Este 39 Este 0 1017.7 -1.6 61
2019-12-06 13:00:00 18.6 26 Este 35 Este 0 1018.3 -0.3 65
2019-12-06 12:00:00 15.3 6 Nordeste 14 Norte 0 1019 1.2 71
2019-12-06 11:00:00 13.2 12 Nordeste 16 Norte 0 1019.3 2.4 76
2019-12-06 10:00:00 12.3 10 Nordeste 19 Norte 0 1018.6 2.4 82
2019-12-06 09:00:00 11.9 13 Norte 20 Norte 0 1017.8 1.8 84
2019-12-06 08:00:00 11.8 13 Norte 23 Norte 0 1016.9 1 89
2019-12-06 07:00:00 12.3 4 Nordeste 17 Nordeste 0 1016.2 0.5 80
2019-12-06 06:00:00 12.4 8 Nordeste 14 Nordeste 0 1016 0.5 82
2019-12-06 05:00:00 12.4 12 Norte 21 Norte 0 1015.9 0.4 82
2019-12-06 04:00:00 12.2 15 Norte 21 Norte 0 1015.7 -0.1 81
2019-12-06 03:00:00 13.7 9 Nordeste 18 Nordeste 0 1015.5 -0.3 75
2019-12-06 02:00:00 13.3 8 Nordeste 13 Norte 0 1015.5 -0.2 77
2019-12-06 01:00:00 14.3 11 Norte 15 Nordeste 0 1015.8 0.4 74
2019-12-06 00:00:00 14.8 10 Nordeste 19 Nordeste 0 1015.8 0.9 69
2019-12-05 23:00:00 14.9 12 Nordeste 17 Nordeste 0 1015.7 1.2 70
2019-12-05 22:00:00 14.8 5 Nordeste 16 Este 0 1015.4 1.6 68
2019-12-05 21:00:00 15.1 10 Este 14 Este 0 1014.9 1.5 68
2019-12-05 20:00:00 15.5 5 Este 12 Este 0 1014.5 1.8 66
2019-12-05 19:00:00 16.1 4 Este 18 Este 0 1013.8 1.6 69
2019-12-05 18:00:00 16.6 17 Este 22 Este 0 1013.4 1 62
2019-12-05 17:00:00 17.9 15 Este 23 Este 0 1012.7 0.2 64
2019-12-05 16:00:00 18 18 Este 25 Este 0 1012.2 -0.9 62
2019-12-05 15:00:00 17.3 11 Nordeste 18 Nordeste 0 1012.4 -1.4 59
2019-12-05 14:00:00 16.3 10 Norte 16 Norte 0 1012.5 -1.3 63
2019-12-05 13:00:00 15.2 9 Nordeste 21 Nordeste 0 1013.1 0 62
2019-12-05 12:00:00 13.8 15 Nordeste 25 Nordeste 0 1013.8 1.4 64
2019-12-05 11:00:00 12.1 13 Nordeste 18 Nordeste 0 1013.8 1.6 66
2019-12-05 10:00:00 10.4 11 Nordeste 20 Norte 0 1013.1 1.5 75
2019-12-05 09:00:00 8.6 6 Nordeste 17 Norte 0 1012.4 1.2 82
2019-12-05 08:00:00 10.6 12 Nordeste 15 Norte 0 1012.2 1.1 82
2019-12-05 07:00:00 10.6 5 Nordeste 7 Nordeste 0 1011.6 0.2 80
2019-12-05 06:00:00 10.7 6 Nordeste 13 Nordeste 0 1011.2 0.3 78
2019-12-05 05:00:00 11.2 6 Norte 10 Norte 0 1011.1 0.3 80
2019-12-05 04:00:00 11.3 7 Nordeste 12 Norte 0 1011.4 0.4 80
2019-12-05 03:00:00 12.1 7 Norte 10 Norte 0 1010.9 -0.1 79
2019-12-05 02:00:00 12.1 0 Calma 12 Nordeste 0 1010.8 0.3 75
2019-12-05 01:00:00 12.6 6 Nordeste 12 Nordeste 0 1011 0.3 71
2019-12-05 00:00:00 13.4 5 Este 7 Sudeste 0 1011 0.7 71
2019-12-04 23:00:00 13.3 3 Nordeste 6 Nordeste 0 1010.5 0.6 69
2019-12-04 22:00:00 13.5 3 Nordeste 7 Este 0 1010.7 1.3 71
2019-12-04 21:00:00 13.8 5 Este 8 Este 0 1010.3 1 72
2019-12-04 20:00:00 14.1 0 Calma 6 Norte 0 1009.9 0.7 67
2019-12-04 19:00:00 14.1 3 Noroeste 10 Noroeste 0 1009.4 0.3 65
2019-12-04 18:00:00 14.4 6 Oeste 18 Oeste 0 1009.3 0.1 62
2019-12-04 17:00:00 14.6 9 Oeste 17 Oeste 0 1009.2 -0.3 64
2019-12-04 16:00:00 14.8 9 Oeste 21 Sudoeste 0 1009.1 -1.3 67
2019-12-04 15:00:00 14.7 15 Oeste 23 Oeste 0 1009.2 -1.9 64
2019-12-04 14:00:00 14.3 14 Oeste 23 Noroeste 0 1009.5 -1.6 67
2019-12-04 13:00:00 14.2 13 Noroeste 23 Noroeste 0 1010.4 -0.4 72
2019-12-04 12:00:00 14.3 16 Oeste 22 Oeste 0 1011.1 0.9 75
2019-12-04 11:00:00 13.5 10 Noroeste 19 Noroeste 0 1011.1 1.2 77
2019-12-04 10:00:00 13.4 14 Noroeste 28 Noroeste 0 1010.8 1.3 77
2019-12-04 09:00:00 13.2 20 Noroeste 30 Noroeste 0 1010.2 0.7 81
2019-12-04 08:00:00 13.4 16 Noroeste 26 Noroeste 0 1009.9 0.4 86
2019-12-04 07:00:00 13.9 13 Oeste 22 Oeste 0 1009.5 -0.5 86
2019-12-04 06:00:00 13.9 13 Oeste 20 Oeste 0 1009.5 -1 88
2019-12-04 05:00:00 13.9 7 Oeste 15 Oeste 0 1009.5 -1.6 87
2019-12-04 04:00:00 13.7 6 Oeste 12 Oeste 0 1010 -1.6 88
2019-12-04 03:00:00 14 7 Oeste 11 Oeste 0 1010.5 -1 87
2019-12-04 02:00:00 14.7 4 Oeste 14 Noroeste 0 1011.1 0 85
2019-12-04 01:00:00 15.3 9 Noroeste 19 Oeste 0 1011.6 0.5 83
2019-12-04 00:00:00 15.6 13 Noroeste 25 Oeste 0 1011.5 0.8 79
2019-12-03 23:00:00 15.7 15 Noroeste 25 Oeste 0 1011.1 0.6 80
2019-12-03 22:00:00 15.7 13 Noroeste 19 Noroeste 0 1011.1 0.9 79
2019-12-03 21:00:00 15.7 12 Noroeste 22 Oeste 0 1010.7 0.9 75
2019-12-03 20:00:00 15.7 13 Noroeste 19 Noroeste 0 1010.5 1.2 71
2019-12-03 19:00:00 15.7 12 Noroeste 21 Oeste 0 1010.2 1.2 74
2019-12-03 18:00:00 16.6 13 Noroeste 21 Noroeste 0 1009.8 0.9 72
2019-12-03 17:00:00 17 13 Norte 17 Norte 0 1009.3 0 71
2019-12-03 16:00:00 16.8 13 Norte 19 Norte 0 1009 -0.6 73
2019-12-03 15:00:00 16.4 16 Norte 27 Norte 0 1008.9 -1.4 69
2019-12-03 14:00:00 15.8 17 Norte 28 Norte 0 1009.3 -1.5 72
2019-12-03 13:00:00 14.8 19 Norte 27 Norte 0 1009.6 -1 75
2019-12-03 12:00:00 14.2 21 Norte 29 Norte 0 1010.3 0 77
2019-12-03 11:00:00 13.2 18 Norte 30 Norte 0 1010.8 0.8 81
2019-12-03 10:00:00 12.2 17 Nordeste 25 Norte 0 1010.6 1 84
2019-12-03 09:00:00 11.8 15 Norte 30 Nordeste 0 1010.3 0.9 88
2019-12-03 08:00:00 11.9 6 Norte 20 Norte 0 1010 0.3 90
2019-12-03 07:00:00 11.9 10 Norte 19 Norte 0 1009.6 -1.2 90
2019-12-03 06:00:00 12.7 14 Norte 19 Norte 0 1009.4 -1.1 88
2019-12-03 05:00:00 12.7 3 Nordeste 15 Nordeste 0 1009.7 -0.8 83
2019-12-03 04:00:00 12.4 7 Nordeste 14 Este 0 1010.8 0 88
2019-12-03 03:00:00 12.6 8 Nordeste 15 Norte 0 1010.5 -0.5 84
2019-12-03 02:00:00 12.4 9 Nordeste 19 Norte 0 1010.5 -0.5 86
2019-12-03 01:00:00 12.8 11 Nordeste 17 Nordeste 0 1010.8 0 86
2019-12-03 00:00:00 12.9 4 Este 9 Nordeste 0 1011 0.2 86
2019-12-02 23:00:00 13.4 6 Nordeste 16 Este 0 1011 0.9 88
2019-12-02 22:00:00 13.5 12 Este 21 Este 0.1 1010.8 1.5 87
2019-12-02 21:00:00 13.3 8 Nordeste 24 Este 0.6 1010.8 2.2 86
2019-12-02 20:00:00 13.7 12 Nordeste 20 Este 0.2 1010.1 1.9 81
2019-12-02 19:00:00 13.8 9 Nordeste 19 Este 0.1 1009.3 1.6 80
2019-12-02 18:00:00 13.8 7 Nordeste 24 Este 0.1 1008.6 1.4 82
2019-12-02 17:00:00 14.3 24 Este 34 Sudeste 0 1008.2 0.4 80
2019-12-02 16:00:00 14.2 17 Este 36 Este 1 1007.7 -0.6 86
2019-12-02 15:00:00 14.4 8 Nordeste 24 Este 0.4 1007.2 -1.6 85
2019-12-02 14:00:00 14.5 15 Este 24 Este 0 1007.8 -0.9 81
2019-12-02 13:00:00 14.8 13 Este 25 Este 0 1008.3 0.2 80
2019-12-02 12:00:00 14.6 13 Este 21 Este 0 1008.8 1.3 85
2019-12-02 11:00:00 14.4 6 Nordeste 12 Nordeste 0 1008.7 1.6 86
2019-12-02 10:00:00 13.1 10 Norte 14 Nordeste 0 1008.1 1.1 92
2019-12-02 09:00:00 13.3 6 Nordeste 12 Este 0 1007.5 0.3 90
2019-12-02 08:00:00 13.2 9 Este 12 Este 0 1007.1 -0.4 91
2019-12-02 07:00:00 13.1 9 Este 14 Este 0.5 1007 -0.8 91
2019-12-02 06:00:00 13.2 4 Este 9 Este 0.5 1007.2 -0.9 89
2019-12-02 05:00:00 13.9 6 Norte 12 Noroeste 0 1007.5 -1.1 85
2019-12-02 04:00:00 14.2 3 Noroeste 23 Noroeste 0 1007.8 -1.4 83
2019-12-02 03:00:00 14.5 12 Noroeste 19 Noroeste 0 1008.1 -1.6 80
2019-12-02 02:00:00 14.7 11 Noroeste 19 Noroeste 0 1008.6 -1.4 76
2019-12-02 01:00:00 14.9 10 Noroeste 24 Noroeste 0 1009.2 -1.1 78
2019-12-02 00:00:00 15.2 14 Oeste 29 Oeste 0 1009.7 -1 80
2019-12-01 23:00:00 15.3 16 Oeste 27 Oeste 0 1010 -1 79
2019-12-01 22:00:00 15.7 16 Oeste 27 Oeste 0 1010.3 -0.7 78
2019-12-01 21:00:00 15.7 14 Oeste 27 Oeste 0 1010.7 -0.5 82
2019-12-01 20:00:00 15.5 12 Oeste 27 Oeste 0 1011 -0.2 82
2019-12-01 19:00:00 15.4 13 Oeste 30 Oeste 0 1011 -0.8 83
2019-12-01 18:00:00 15.7 16 Oeste 26 Oeste 0 1011.2 -1.2 81
2019-12-01 17:00:00 16.3 18 Oeste 28 Oeste 0 1011.2 -2.1 83
2019-12-01 16:00:00 16.2 11 Oeste 19 Sudoeste 0 1011.8 -2.4 85
2019-12-01 15:00:00 15.2 9 Oeste 31 Noroeste 0.4 1012.4 -3.2 87
2019-12-01 14:00:00 17.3 13 Oeste 22 Sudoeste 0 1013.3 -2.5 75
2019-12-01 13:00:00 18.4 9 Oeste 22 Oeste 0 1014.2 -1.6 72
2019-12-01 12:00:00 17.1 8 Oeste 17 Oeste 0 1015.6 -0.1 77
2019-12-01 11:00:00 16.7 6 Oeste 13 Oeste 0 1015.8 0.1 74
2019-12-01 10:00:00 15.9 9 Noroeste 17 Noroeste 0 1015.8 0.1 77
2019-12-01 09:00:00 15 9 Noroeste 14 Oeste 0 1015.7 -0.2 86
2019-12-01 08:00:00 14.8 2 Oeste 10 Noroeste 0 1015.7 -0.5 92
2019-12-01 07:00:00 15.3 5 Oeste 9 Oeste 0 1015.7 -1.4 92
2019-12-01 06:00:00 14.8 4 Oeste 6 Oeste 0 1015.9 -1.7 91
2019-12-01 05:00:00 15.6 0 Calma 20 Norte 0 1016.2 -1.7 87
2019-12-01 04:00:00 15.9 8 Noroeste 15 Oeste 0.2 1017.1 -1.2 95
2019-12-01 03:00:00 16.3 11 Oeste 22 Oeste 0.1 1017.6 -1.4 90
2019-12-01 02:00:00 16.5 17 Oeste 32 Oeste 0.5 1017.9 -1.6 92
2019-12-01 01:00:00 16.7 6 Sudoeste 14 Sudoeste 0 1018.3 -1.5 91
2019-12-01 00:00:00 16.5 5 Sudoeste 10 Sudoeste 0 1019 -1.1 92
2019-11-30 23:00:00 16.1 4 Sur 8 Sudoeste 0 1019.5 -0.9 91
2019-11-30 22:00:00 16.6 5 Sudoeste 10 Sudoeste 0 1019.8 -0.5 88
2019-11-30 21:00:00 16.5 5 Sudoeste 14 Oeste 0 1020.1 -0.1 89
2019-11-30 20:00:00 16.4 8 Oeste 17 Oeste 0 1020.4 0.3 86
2019-11-30 19:00:00 16 11 Oeste 19 Oeste 0 1020.3 0 88
2019-11-30 18:00:00 16.1 8 Oeste 15 Sudoeste 0 1020.2 -0.4 85
2019-11-30 17:00:00 17.7 10 Oeste 15 Oeste 0 1020.1 -1.3 75
2019-11-30 16:00:00 17.8 10 Oeste 15 Oeste 0 1020.3 -1.5 73
2019-11-30 15:00:00 17.5 10 Oeste 14 Oeste 0 1020.6 -2 78
2019-11-30 14:00:00 17.7 12 Oeste 16 Oeste 0 1021.4 -1.4 78
2019-11-30 13:00:00 16.8 2 Norte 8 Noroeste 0 1021.8 -0.4 77
2019-11-30 12:00:00 15.7 4 Noroeste 11 Norte 0 1022.6 0.7 80
2019-11-30 11:00:00 14.6 8 Norte 16 Norte 0 1022.8 1.3 85
2019-11-30 10:00:00 14 10 Norte 14 Norte 0 1022.2 1.1 87
2019-11-30 09:00:00 13.6 9 Norte 15 Norte 0 1021.9 1 88
2019-11-30 08:00:00 14 14 Norte 19 Norte 0 1021.5 0.4 87
2019-11-30 07:00:00 14.3 14 Norte 16 Norte 0 1021.1 -0.3 88
2019-11-30 06:00:00 14.3 13 Norte 14 Norte 0 1020.9 -0.6 89
2019-11-30 05:00:00 14.4 10 Norte 17 Norte 0 1021.1 -0.5 89
2019-11-30 04:00:00 14.7 11 Norte 15 Norte 0 1021.4 0 87
2019-11-30 03:00:00 14.9 13 Norte 19 Norte 0 1021.5 0.2 86
2019-11-30 02:00:00 14.8 14 Noroeste 21 Norte 0 1021.6 0.3 89
2019-11-30 01:00:00 15.1 16 Noroeste 22 Norte 0 1021.4 -0.1 91
2019-11-30 00:00:00 15.6 14 Norte 17 Norte 0 1021.3 -0.1 90
2019-11-29 23:00:00 15.4 10 Noroeste 14 Norte 0 1021.3 0 90
2019-11-29 22:00:00 15.8 8 Norte 16 Noroeste 0 1021.5 0.1 87
2019-11-29 21:00:00 16.2 10 Noroeste 20 Noroeste 0 1021.4 0.3 85
2019-11-29 20:00:00 16.8 14 Noroeste 21 Noroeste 0 1021.3 0.2 79
2019-11-29 19:00:00 16.8 13 Noroeste 19 Noroeste 0 1021.4 0.5 82
2019-11-29 18:00:00 17.6 11 Noroeste 17 Noroeste 0 1021.1 0 79
2019-11-29 17:00:00 18.4 13 Noroeste 18 Noroeste 0 1021.1 -0.5 75
2019-11-29 16:00:00 18.3 10 Oeste 15 Oeste 0 1020.9 -1.3 78
2019-11-29 15:00:00 18.1 10 Oeste 15 Oeste 0 1021.1 -1.8 78
2019-11-29 14:00:00 18.3 9 Oeste 12 Noroeste 0 1021.6 -1.2 78
2019-11-29 13:00:00 17.3 9 Noroeste 13 Noroeste 0 1022.2 -0.3 80
2019-11-29 12:00:00 15.7 5 Norte 7 Noroeste 0 1022.9 1.3 84
2019-11-29 11:00:00 14.8 6 Norte 8 Norte 0 1022.8 1.5 87
2019-11-29 10:00:00 13.6 5 Norte 8 Norte 0 1022.5 1.6 92
2019-11-29 09:00:00 13.1 4 Nordeste 7 Nordeste 0 1021.6 0.8 95
2019-11-29 08:00:00 14 5 Norte 10 Norte 0 1021.3 0.7 91
2019-11-29 07:00:00 14.6 8 Norte 11 Norte 0 1020.9 0.2 90
2019-11-29 06:00:00 13.3 7 Norte 9 Norte 0 1020.8 0.4 98
2019-11-29 05:00:00 13.1 5 Norte 7 Norte 0 1020.6 0.3 99
2019-11-29 04:00:00 12.6 4 Norte 7 Norte 0 1020.7 0.1 97
2019-11-29 03:00:00 13.4 4 Nordeste 6 Norte 0 1020.4 -0.1 96
2019-11-29 02:00:00 14 2 Nordeste 8 Norte 0 1020.3 -0.2 94
2019-11-29 01:00:00 15.3 6 Norte 9 Noroeste 0 1020.6 0.5 95
2019-11-29 00:00:00 15.1 5 Norte 9 Noroeste 0 1020.5 0.5 94
2019-11-28 23:00:00 14.8 0 Calma 6 Noroeste 0 1020.5 0.9 92
2019-11-28 22:00:00 15.5 4 Noroeste 8 Norte 0 1020.1 0.8 92
2019-11-28 21:00:00 15.7 5 Norte 12 Oeste 0 1020 1.1 90
2019-11-28 20:00:00 15.6 6 Oeste 13 Oeste 0 1019.6 0.5 88
2019-11-28 19:00:00 16.1 7 Oeste 11 Oeste 0 1019.3 0.5 86
2019-11-28 18:00:00 16.9 6 Oeste 13 Oeste 0 1018.9 -0.1 85
2019-11-28 17:00:00 18.4 8 Oeste 14 Sudoeste 0 1019.1 -0.4 77
2019-11-28 16:00:00 18.6 6 Oeste 12 Sudoeste 0 1018.8 -1.2 76
2019-11-28 15:00:00 19 8 Oeste 13 Oeste 0 1019 -1.6 73
2019-11-28 14:00:00 17.5 5 Norte 8 Norte 0 1019.5 -1.2 77
2019-11-28 13:00:00 17.1 3 Noroeste 4 Noroeste 0 1020 -0.3 85
2019-11-28 12:00:00 15.1 0 Calma 4 Norte 0 1020.6 0.8 94
2019-11-28 11:00:00 14.2 3 Norte 5 Norte 0 1020.7 1.8 96
2019-11-28 10:00:00 13.1 2 Norte 4 Norte 0 1020.3 1.7 99
2019-11-28 09:00:00 12.7 0 Calma 6 Nordeste 0.1 1019.8 1.4 99
2019-11-28 08:00:00 12.7 3 Este 9 Este 0 1018.9 0.7 99
2019-11-28 07:00:00 12.7 4 Nordeste 7 Nordeste 0 1018.6 0.5 98
2019-11-28 06:00:00 13.4 3 Nordeste 6 Nordeste 0.1 1018.4 0.3 97
2019-11-28 05:00:00 14 2 Este 5 Sudeste 0 1018.2 0 97
2019-11-28 04:00:00 14.5 4 Sudeste 6 Sudeste 0 1018.1 -0.6 97
2019-11-28 03:00:00 14.4 3 Sur 8 Sur 0 1018.1 -0.6 97
2019-11-28 02:00:00 14.9 0 Calma 6 Sudeste 0.1 1018.2 -0.4 97
2019-11-28 01:00:00 14.8 0 Calma 6 Oeste 0 1018.7 0.1 96
2019-11-28 00:00:00 15.1 0 Calma 6 Sudeste 0 1018.7 0.8 96
2019-11-27 23:00:00 15.6 4 Sudoeste 8 Oeste 0 1018.6 1.1 96
2019-11-27 22:00:00 15.6 5 Oeste 10 Sudoeste 0 1018.6 1.6 96
2019-11-27 21:00:00 15.7 6 Sudoeste 10 Sudoeste 0 1017.9 1.6 96
2019-11-27 20:00:00 16.1 6 Sudoeste 10 Sudoeste 0 1017.5 0.9 94
2019-11-27 19:00:00 16.2 5 Sudoeste 8 Sudoeste 0 1017 0.7 92
2019-11-27 18:00:00 17 0 Calma 11 Oeste 0 1016.3 0 86
2019-11-27 17:00:00 17.3 8 Oeste 13 Sudoeste 0 1016.6 0 83
2019-11-27 16:00:00 17.8 8 Sudoeste 13 Sudoeste 0 1016.3 -0.7 86
2019-11-27 15:00:00 17.9 8 Sudoeste 12 Sudoeste 0 1016.3 -1.4 84
2019-11-27 14:00:00 17.8 6 Oeste 12 Sudoeste 0 1016.6 -1.2 87
2019-11-27 06:00:00 16.2 5 Sudoeste 14 Sudoeste 0 1015.3 -0.3 96
2019-11-27 05:00:00 16.1 8 Sudoeste 15 Sudoeste 0 1015.2 -0.9 96
2019-11-27 04:00:00 15.9 7 Sudoeste 14 Sudoeste 0 1015.3 -1.1 97
2019-11-27 03:00:00 15.8 6 Sudoeste 14 Oeste 0.3 1015.6 -0.6 97
2019-11-27 02:00:00 16 6 Oeste 32 Oeste 0.3 1016.1 0 96
2019-11-27 01:00:00 17.1 14 Sudoeste 27 Sudoeste 0.8 1016.4 0.1 93
2019-11-27 00:00:00 17.1 12 Sudoeste 24 Sudoeste 0 1016.2 0 94
2019-11-26 23:00:00 16.9 12 Sur 19 Sudoeste 0 1016.1 0 95
2019-11-26 22:00:00 16.7 8 Sur 15 Sur 0 1016.3 0.3 96
2019-11-26 21:00:00 16.7 5 Sur 13 Sur 0 1016.2 0.7 97
2019-11-26 20:00:00 16.7 6 Sur 13 Sudoeste 0 1016.1 0.5 96
2019-11-26 19:00:00 17.2 8 Sudoeste 15 Sudoeste 0 1016 0.3 96
2019-11-26 18:00:00 17.3 6 Sudoeste 13 Sudoeste 0 1015.5 -0.2 95
2019-11-26 17:00:00 17.5 6 Sur 13 Sur 0 1015.6 -0.4 93
2019-11-26 16:00:00 17.7 5 Sur 15 Sudoeste 0 1015.7 -1.3 93
2019-11-26 15:00:00 18.9 7 Sudoeste 15 Sudoeste 0 1015.7 -2.1 87
2019-11-26 14:00:00 18.8 4 Sur 10 Sudoeste 0 1016 -1.9 91
2019-11-26 13:00:00 17.8 5 Sudoeste 12 Sudoeste 0 1017 -0.7 95
2019-11-26 12:00:00 17.1 6 Sur 13 Sudoeste 0.8 1017.8 0.2 97
2019-11-26 11:00:00 16.8 3 Sur 5 Sur 0.2 1017.9 0.4 97
2019-11-26 10:00:00 16.4 3 Sudeste 5 Sudeste 0 1017.7 0.4 98
2019-11-26 09:00:00 16 4 Sudeste 8 Este 0 1017.6 0.4 98
2019-11-26 08:00:00 16.2 0 Calma 5 Norte 0 1017.5 0.2 99
2019-11-26 07:00:00 16.2 2 Norte 4 Norte 0 1017.3 -0.4 98
2019-11-26 06:00:00 16.5 3 Nordeste 6 Nordeste 0 1017.2 -0.7 98
2019-11-26 05:00:00 16.7 3 Nordeste 6 Nordeste 0 1017.3 -1 98
2019-11-26 04:00:00 16.6 2 Nordeste 5 Nordeste 0 1017.7 -1 98
2019-11-26 03:00:00 16.6 2 Norte 9 Noroeste 0 1017.9 -1.1 97
2019-11-26 02:00:00 17 4 Oeste 16 Oeste 0 1018.3 -0.5 96
2019-11-26 01:00:00 16.9 8 Oeste 14 Oeste 0 1018.7 -0.3 96
2019-11-26 00:00:00 17.2 10 Oeste 18 Oeste 0 1019 0.1 96
2019-11-25 23:00:00 17.1 9 Oeste 17 Sudoeste 0 1018.8 0.1 96
2019-11-25 22:00:00 17.1 9 Sudoeste 17 Sudoeste 0 1019 0.4 95
2019-11-25 21:00:00 17.2 8 Sudoeste 18 Sudoeste 0 1018.9 0.4 93
2019-11-25 20:00:00 17.3 9 Sudoeste 19 Sudoeste 0 1018.7 0.2 92
2019-11-25 19:00:00 17.4 7 Sudoeste 21 Sudoeste 0 1018.6 0.3 91
2019-11-25 18:00:00 17.5 9 Sudoeste 20 Sudoeste 0 1018.5 -0.3 89
2019-11-25 17:00:00 17.8 9 Sudoeste 20 Sur 0 1018.5 -0.5 88
2019-11-25 16:00:00 18.2 9 Sudoeste 19 Sudoeste 0 1018.3 -1.3 85
2019-11-25 15:00:00 18.6 10 Sudoeste 24 Sudoeste 0 1018.8 -1.3 83
2019-11-25 14:00:00 18.7 14 Sudoeste 24 Sudoeste 0 1019 -1.1 81
2019-11-25 13:00:00 18.8 7 Sudoeste 17 Sudoeste 0 1019.6 -0.2 81
2019-11-25 12:00:00 18.6 6 Sur 15 Sudoeste 0 1020.1 0.5 82
2019-11-25 11:00:00 17.7 8 Sudoeste 15 Sudoeste 0 1020.1 1 85
2019-11-25 10:00:00 16.7 7 Sudoeste 15 Sudoeste 0 1019.8 1 89
2019-11-25 09:00:00 16 6 Sudoeste 12 Sudoeste 0 1019.6 1.2 92
2019-11-25 08:00:00 15.3 3 Sudeste 12 Sur 0 1019.1 0.5 93
2019-11-25 07:00:00 14.8 3 Sur 14 Sudeste 0 1018.8 0.1 93
2019-11-25 06:00:00 14.3 6 Sur 15 Sudeste 0 1018.4 -0.7 93
2019-11-25 05:00:00 14.1 5 Sur 12 Sur 0 1018.6 -0.7 94
2019-11-25 04:00:00 13.6 4 Sur 8 Sudeste 0 1018.7 -1 93
2019-11-25 03:00:00 13.6 4 Sudeste 6 Sudeste 0 1019.1 -0.6 92
2019-11-25 02:00:00 13.5 4 Sudeste 6 Sudeste 0 1019.3 -0.5 93
2019-11-25 01:00:00 13.1 0 Calma 5 Este 0 1019.7 -0.1 92
2019-11-25 00:00:00 13.5 4 Este 7 Este 0 1019.7 0.1 91
2019-11-24 23:00:00 14.2 0 Calma 6 Sur 0 1019.8 0.2 91
2019-11-24 22:00:00 14.5 3 Sur 7 Sur 0 1019.8 0.4 91
2019-11-24 21:00:00 14.5 5 Sudoeste 8 Sur 0 1019.6 0.8 86
2019-11-24 20:00:00 14.5 5 Sudoeste 10 Sudoeste 0 1019.6 1 86
2019-11-24 19:00:00 14.7 2 Sur 6 Sudoeste 0 1019.4 0.7 81
2019-11-24 18:00:00 15.3 4 Sudoeste 11 Sudoeste 0 1018.8 0 75
2019-11-24 17:00:00 16.5 9 Oeste 14 Oeste 0 1018.6 -0.5 70
2019-11-24 16:00:00 16.6 10 Oeste 16 Oeste 0 1018.7 -1.1 70
2019-11-24 15:00:00 16 11 Oeste 18 Sudoeste 0 1018.8 -1.4 70
2019-11-24 14:00:00 15.6 12 Oeste 17 Oeste 0 1019.1 -0.9 71
2019-11-24 13:00:00 15 8 Noroeste 14 Noroeste 0 1019.8 -0.2 74
2019-11-24 12:00:00 14.2 3 Norte 5 Norte 0 1020.2 0.9 81
2019-11-24 11:00:00 13.7 0 Calma 8 Norte 0 1020 1.4 80
2019-11-24 10:00:00 12.7 6 Norte 14 Norte 0 1020 2.4 85
2019-11-24 09:00:00 13.3 12 Norte 19 Noroeste 0 1019.3 2.2 85
2019-11-24 08:00:00 13.2 14 Noroeste 22 Noroeste 0 1018.6 1.6 82
2019-11-24 07:00:00 13.4 13 Noroeste 18 Noroeste 0 1017.6 0.6 81
2019-11-24 06:00:00 13.3 11 Noroeste 16 Noroeste 0 1017.1 0.1 80
2019-11-24 05:00:00 13.4 12 Noroeste 17 Noroeste 0 1017 0.4 81
2019-11-24 04:00:00 13.9 10 Noroeste 20 Noroeste 0 1017 0.3 80
2019-11-24 03:00:00 14.2 14 Noroeste 21 Norte 0 1017 0.3 78
2019-11-24 02:00:00 14.5 15 Noroeste 26 Noroeste 0 1016.6 0.1 77
2019-11-24 01:00:00 14.8 16 Noroeste 27 Noroeste 0 1016.7 0.6 75
2019-11-24 00:00:00 15.1 18 Noroeste 27 Noroeste 0 1016.7 1.2 73
2019-11-23 23:00:00 15.3 14 Noroeste 23 Noroeste 0 1016.5 1.7 70
2019-11-23 22:00:00 15.5 15 Noroeste 23 Oeste 0 1016.1 2.1 76
2019-11-23 21:00:00 15.2 12 Oeste 21 Noroeste 0 1015.5 2.3 84
2019-11-23 20:00:00 15.3 13 Oeste 25 Oeste 0 1014.8 2.2 82
2019-11-23 19:00:00 15.5 18 Oeste 27 Oeste 0 1014 2 78
2019-11-23 18:00:00 15.6 17 Oeste 29 Noroeste 0 1013.2 1.3 77
2019-11-23 17:00:00 16.4 15 Oeste 24 Noroeste 0 1012.6 0.6 75
2019-11-23 16:00:00 16.5 14 Oeste 25 Oeste 0 1012 0 72
2019-11-23 15:00:00 16.2 17 Oeste 30 Oeste 0 1011.9 0.1 70
2019-11-23 14:00:00 15.8 22 Noroeste 33 Noroeste 0 1012 0.6 72
2019-11-23 13:00:00 15.6 19 Noroeste 33 Noroeste 0 1012 1.7 73
2019-11-23 12:00:00 15.7 21 Noroeste 35 Noroeste 0 1011.8 2.5 73
2019-11-23 11:00:00 15.5 21 Noroeste 31 Noroeste 0 1011.4 3 75
2019-11-23 10:00:00 15.3 20 Noroeste 36 Oeste 0 1010.3 3.1 77
2019-11-23 09:00:00 14.9 20 Oeste 33 Oeste 0 1009.3 2.8 80
2019-11-23 08:00:00 14.5 14 Oeste 33 Oeste 0 1008.4 2.5 83
2019-11-23 07:00:00 13.9 18 Oeste 53 Noroeste 0.5 1007.2 1.6 89
2019-11-23 06:00:00 15.7 31 Oeste 50 Noroeste 0.1 1006.5 1.3 84
2019-11-23 05:00:00 16.3 15 Oeste 37 Oeste 0 1005.9 0.9 81
2019-11-23 04:00:00 16.3 17 Oeste 35 Oeste 0 1005.6 0.6 80
2019-11-23 03:00:00 16.2 19 Oeste 41 Oeste 0 1005.2 0.6 78
2019-11-23 02:00:00 16.3 16 Oeste 33 Oeste 0 1005 0.7 81
2019-11-23 01:00:00 16.5 14 Oeste 32 Oeste 0 1005 1.2 85
2019-11-23 00:00:00 16.8 19 Oeste 41 Oeste 0 1004.6 1.3 80
2019-11-22 23:00:00 16.8 19 Oeste 33 Oeste 0 1004.3 2 86
2019-11-22 22:00:00 16.7 16 Oeste 34 Oeste 0 1003.8 2.7 82
2019-11-22 21:00:00 16.7 18 Oeste 39 Noroeste 0 1003.3 2 88
2019-11-22 20:00:00 17 24 Oeste 52 Oeste 2.4 1002.3 1.2 94
2019-11-22 19:00:00 17.6 23 Sudoeste 42 Sudoeste 2.5 1001.1 0 96
2019-11-22 18:00:00 17.6 19 Sudoeste 38 Sudoeste 1.3 1001.3 -0.3 93
2019-11-22 17:00:00 18.5 23 Sudoeste 40 Sudoeste 0.2 1001.1 -1.2 90
2019-11-22 16:00:00 18.1 21 Sudoeste 36 Sudoeste 0.3 1001.1 -2.4 91
2019-11-22 15:00:00 18.3 18 Sudoeste 45 Sudoeste 0 1001.6 -3.2 91
2019-11-22 14:00:00 18 19 Sudoeste 42 Sudoeste 0.2 1002.3 -3 95
2019-11-22 13:00:00 17 19 Sudoeste 40 Sudoeste 0.7 1003.5 -1.3 96
2019-11-22 12:00:00 17.1 13 Sur 24 Sudoeste 0 1004.8 0.4 94
2019-11-22 11:00:00 16.7 7 Sur 18 Sur 0 1005.3 0.1 95
2019-11-22 10:00:00 17.1 9 Sur 19 Sudoeste 0 1004.8 -0.9 95
2019-11-22 09:00:00 16.4 11 Sur 22 Sur 0 1004.4 -1.1 96
2019-11-22 08:00:00 16.3 7 Sudoeste 19 Oeste 0 1005.2 -0.9 97
2019-11-22 07:00:00 16.5 15 Oeste 40 Sudoeste 2.7 1005.7 -1.1 96
2019-11-22 06:00:00 16.7 14 Sudoeste 25 Sudoeste 0.2 1005.5 -1.5 97
2019-11-22 05:00:00 16.1 6 Sur 14 Sudoeste 0.1 1006.1 -1.3 97
2019-11-22 04:00:00 16 8 Sudoeste 18 Sur 0 1006.8 -1 97
2019-11-22 03:00:00 15.7 9 Sur 19 Sur 0 1007 -1.5 96
2019-11-22 02:00:00 15.7 6 Sur 23 Sur 0 1007.4 -1.6 96
2019-11-22 01:00:00 15.7 14 Sur 23 Sur 0 1007.8 -1.6 96
2019-11-22 00:00:00 15.7 7 Sur 18 Sudoeste 0.5 1008.5 -0.7 96
2019-11-21 23:00:00 15.6 6 Sur 15 Sudoeste 0.5 1009 -0.2 96
2019-11-21 22:00:00 15.5 5 Sur 12 Sur 0.2 1009.4 0.6 95
2019-11-21 21:00:00 15.5 7 Sur 14 Sur 0 1009.2 0.3 94
2019-11-21 20:00:00 15.5 5 Sur 18 Sur 0 1009.2 0.7 93
2019-11-21 19:00:00 15.6 10 Sur 17 Sur 0 1008.8 0.3 94
2019-11-21 18:00:00 15.7 7 Sudoeste 15 Sudoeste 0 1008.9 0 94
2019-11-21 17:00:00 15.8 4 Sudoeste 10 Sudoeste 0 1008.5 -0.5 93
2019-11-21 16:00:00 15.7 6 Sur 12 Sur 0.1 1008.5 -1 93
2019-11-21 15:00:00 15.4 9 Oeste 23 Sur 4 1008.9 -1.6 94
2019-11-21 14:00:00 15.6 12 Sur 24 Sudoeste 2.7 1009 -1.6 94
2019-11-21 13:00:00 16.8 7 Sur 20 Sur 0 1009.5 -0.9 87
2019-11-21 12:00:00 16.4 10 Sur 22 Sur 0.1 1010.5 0.3 89
2019-11-21 11:00:00 15.7 5 Sur 12 Sur 0.2 1010.6 0.5 92
2019-11-21 10:00:00 15.5 6 Sudeste 14 Sur 1.4 1010.4 0.9 94
2019-11-21 09:00:00 15.3 3 Sur 11 Sudoeste 0 1010.2 0.3 93
2019-11-21 08:00:00 15.8 6 Sudoeste 15 Sudoeste 0 1010.1 0.2 90
2019-11-21 07:00:00 15.6 8 Sudoeste 18 Sudoeste 0 1009.5 -0.9 91
2019-11-21 06:00:00 15.3 4 Sudoeste 20 Sudoeste 0 1009.9 -0.8 92
2019-11-21 05:00:00 15.4 11 Sudoeste 24 Sudoeste 0.8 1009.9 -0.9 92
2019-11-21 04:00:00 15.4 6 Sudoeste 18 Sudoeste 0 1010.4 -1.2 92
2019-11-21 03:00:00 14.4 3 Sudoeste 12 Sudoeste 0 1010.7 -0.9 94
2019-11-21 02:00:00 14.8 4 Sudeste 10 Sudoeste 0.7 1010.8 -1 91
2019-11-21 01:00:00 14.7 7 Oeste 24 Oeste 3.9 1011.6 -0.2 90
2019-11-21 00:00:00 14.8 5 Sur 14 Sur 0.1 1011.6 0.4 91
2019-11-20 23:00:00 14.8 8 Sur 14 Sur 0 1011.8 0.7 89
2019-11-20 22:00:00 14.4 6 Sur 13 Sur 0 1011.8 1.3 91
2019-11-20 21:00:00 14.1 6 Sur 13 Sur 0 1011.2 1.3 91
2019-11-20 20:00:00 14.2 4 Sur 6 Sudeste 0 1011.1 1.1 89
2019-11-20 19:00:00 14.2 3 Oeste 10 Sudoeste 0 1010.5 0.9 80
2019-11-20 18:00:00 15.2 5 Sudoeste 27 Sur 0 1009.9 0.3 79
2019-11-20 17:00:00 15.6 20 Sur 43 Sur 0 1010 0.1 85
2019-11-20 16:00:00 14.3 27 Sur 54 Sur 0 1009.6 -1.2 86
2019-11-20 15:00:00 15.1 35 Sur 54 Sur 0 1009.6 -1.8 84
2019-11-20 14:00:00 15.1 29 Sur 54 Sur 0 1009.9 -2.3 88
2019-11-20 13:00:00 15.4 25 Sur 44 Sur 0 1010.8 -1.2 87
2019-11-20 12:00:00 15.2 26 Sur 44 Sudeste 0 1011.4 -0.8 88
2019-11-20 11:00:00 14.4 16 Sur 28 Sur 0.3 1012.2 0.2 88
2019-11-20 10:00:00 13.2 18 Sudeste 22 Sudeste 0.4 1012 -0.5 95
2019-11-20 09:00:00 12.3 14 Sudeste 26 Sudeste 0.6 1012.2 -0.5 93
2019-11-20 08:00:00 12.2 24 Sudeste 29 Sudeste 0 1012 -1.1 88
2019-11-20 07:00:00 11.6 8 Este 12 Sudeste 0 1012.5 -1.3 88
2019-11-20 06:00:00 11.2 3 Nordeste 13 Sudeste 0 1012.7 -1.5 87
2019-11-20 05:00:00 10.9 5 Este 12 Este 0 1013.1 -1.5 89
2019-11-20 04:00:00 10.8 6 Este 12 Este 0 1013.8 -1.4 85
2019-11-20 03:00:00 10.7 4 Este 9 Este 0 1014.2 -1 88
2019-11-20 02:00:00 10.9 3 Nordeste 5 Nordeste 0 1014.6 -1.1 88
2019-11-20 01:00:00 11.2 3 Este 9 Este 0 1015.2 -0.5 86
2019-11-20 00:00:00 12.1 5 Este 10 Este 0 1015.2 -0.7 89
2019-11-19 23:00:00 12.2 0 Calma 2 Noroeste 0 1015.7 -0.4 79
2019-11-19 22:00:00 12.2 3 Oeste 4 Oeste 0 1015.7 -0.3 77
2019-11-19 21:00:00 12.6 3 Oeste 7 Oeste 0 1015.9 -0.1 76
2019-11-19 20:00:00 13.2 5 Oeste 9 Oeste 0 1016.1 0.1 75
2019-11-19 19:00:00 14 4 Oeste 7 Oeste 0 1016 -0.3 69
2019-11-19 18:00:00 14.8 4 Sudoeste 9 Oeste 0 1016 -0.8 64
2019-11-19 17:00:00 15.7 5 Oeste 10 Oeste 0 1016 -1.4 61
2019-11-19 16:00:00 15.8 6 Oeste 11 Oeste 0 1016.3 -1.6 61
2019-11-19 15:00:00 16.2 6 Oeste 13 Oeste 0 1016.8 -1.8 63
2019-11-19 14:00:00 15.5 3 Norte 8 Sudeste 0 1017.4 -1.7 68
2019-11-19 13:00:00 16.3 4 Este 9 Oeste 0 1017.9 -1.3 64
2019-11-19 12:00:00 15.5 4 Sudoeste 9 Oeste 0 1018.6 -0.3 72
2019-11-19 11:00:00 14.7 0 Calma 6 Este 0 1019.1 0.8 80
2019-11-19 10:00:00 12.6 4 Nordeste 7 Este 0 1019.2 1 86
2019-11-19 09:00:00 11.5 2 Nordeste 10 Sudeste 0 1018.9 0.8 90
2019-11-19 08:00:00 11.2 7 Este 10 Sudeste 0 1018.3 0.4 91
2019-11-19 07:00:00 10.7 6 Este 12 Este 0 1018.2 0.3 91
2019-11-19 06:00:00 10.5 4 Nordeste 9 Este 0 1018.1 0.4 92
2019-11-19 05:00:00 10.7 4 Nordeste 11 Sudeste 0 1017.9 -0.3 90
2019-11-19 04:00:00 10.9 3 Sudeste 10 Nordeste 0 1017.9 -0.5 90
2019-11-19 03:00:00 11.8 4 Este 8 Este 0 1017.7 -1 88
2019-11-19 02:00:00 11.7 0 Calma 7 Este 0 1018.2 -0.6 88
2019-11-19 01:00:00 12.7 6 Este 10 Nordeste 0 1018.4 -0.1 85
2019-11-19 00:00:00 14.1 6 Norte 13 Norte 0 1018.7 0.5 75
2019-11-18 23:00:00 14.7 10 Norte 17 Noroeste 0 1018.8 1 72
2019-11-18 22:00:00 14.7 6 Noroeste 13 Oeste 0 1018.5 1.3 71
2019-11-18 21:00:00 13.8 6 Oeste 9 Oeste 0 1018.2 1.4 78
2019-11-18 20:00:00 13.8 5 Sudoeste 9 Noroeste 0 1017.8 1.1 75
2019-11-18 19:00:00 14.3 4 Noroeste 14 Noroeste 0 1017.2 0.7 73
2019-11-18 18:00:00 14.8 12 Noroeste 22 Oeste 0 1016.8 0.1 68
2019-11-18 17:00:00 15.2 13 Oeste 22 Noroeste 0 1016.7 0.3 66
2019-11-18 16:00:00 14.9 17 Noroeste 27 Noroeste 0 1016.5 -0.6 69
2019-11-18 15:00:00 14.5 17 Noroeste 25 Noroeste 0 1016.7 -0.7 70
2019-11-18 14:00:00 13.9 19 Noroeste 30 Noroeste 0 1016.4 -0.9 74
2019-11-18 13:00:00 13.6 18 Noroeste 27 Noroeste 0 1017.1 0.3 74
2019-11-18 12:00:00 13.2 17 Noroeste 31 Noroeste 0 1017.4 1.3 72
2019-11-18 11:00:00 12.8 19 Noroeste 33 Noroeste 0 1017.3 1.6 75
2019-11-18 10:00:00 12.3 24 Noroeste 39 Noroeste 0 1016.8 1.8 76
2019-11-18 09:00:00 12 25 Noroeste 39 Noroeste 0 1016.1 1.9 78
2019-11-18 08:00:00 12.2 27 Noroeste 40 Norte 0 1015.7 1.9 78
2019-11-18 07:00:00 12.5 28 Noroeste 64 Noroeste 0 1015 1.3 76
2019-11-18 06:00:00 13 23 Noroeste 44 Noroeste 0 1014.2 0.8 70
2019-11-18 05:00:00 13.9 31 Noroeste 48 Noroeste 0 1013.8 -0.5 61
2019-11-18 04:00:00 14.9 21 Noroeste 43 Noroeste 0 1013.7 -1.2 78
2019-11-18 03:00:00 15.6 27 Oeste 48 Oeste 1.3 1013.4 -2.1 92
2019-11-18 02:00:00 16.1 22 Oeste 46 Oeste 0.7 1014.3 -1.7 88
2019-11-18 01:00:00 16.7 23 Oeste 39 Oeste 0 1014.9 -1.7 84
2019-11-18 00:00:00 16.6 19 Oeste 35 Oeste 0 1015.5 -1.3 85
2019-11-17 23:00:00 16.6 17 Oeste 35 Oeste 0 1016 -1.1 85
2019-11-17 22:00:00 16.5 17 Oeste 32 Sudoeste 0 1016.6 -0.6 86
2019-11-17 21:00:00 16.3 18 Oeste 33 Sudoeste 0 1016.8 -0.8 87
2019-11-17 20:00:00 16.5 17 Oeste 34 Oeste 0 1017.1 -0.5 86
2019-11-17 19:00:00 16.5 18 Oeste 32 Sudoeste 0 1017.2 -1 85
2019-11-17 18:00:00 16.7 17 Oeste 28 Sudoeste 0 1017.6 -0.9 84
2019-11-17 17:00:00 17.5 11 Sudoeste 24 Sudoeste 0 1017.6 -1.4 82
2019-11-17 16:00:00 17.6 12 Sudoeste 25 Sudoeste 0 1018.2 -1.7 85
2019-11-17 15:00:00 16.4 14 Sudoeste 32 Sudoeste 0 1018.5 -2.5 90
2019-11-17 14:00:00 15.7 17 Sudoeste 33 Sudoeste 0.9 1019 -2.3 93
2019-11-17 13:00:00 14.7 14 Sudoeste 30 Sudoeste 0.2 1019.9 -1.4 90
2019-11-17 12:00:00 15.3 10 Sudoeste 24 Sudoeste 0 1021 -0.1 78
2019-11-17 11:00:00 14.3 8 Sudoeste 21 Oeste 0 1021.3 0.6 72
2019-11-17 10:00:00 12.4 6 Sur 13 Sur 0 1021.3 1.2 82
2019-11-17 09:00:00 11.3 6 Sudeste 20 Sudeste 0 1021.1 1.1 81
2019-11-17 08:00:00 11.2 6 Sudeste 9 Este 0 1020.7 0.7 81
2019-11-17 07:00:00 10.7 5 Este 9 Este 0 1020.1 -0.3 83
2019-11-17 06:00:00 10.8 3 Nordeste 5 Nordeste 0 1020 -0.2 80
2019-11-17 05:00:00 11.6 4 Este 14 Noroeste 0 1020 -0.4 77
2019-11-17 04:00:00 13.1 11 Noroeste 19 Norte 0 1020.4 -0.1 72
2019-11-17 03:00:00 13.2 11 Noroeste 17 Noroeste 0 1020.2 -0.1 65
2019-11-17 02:00:00 13.7 12 Noroeste 17 Noroeste 0 1020.4 -0.3 65
2019-11-17 01:00:00 13.6 6 Noroeste 14 Noroeste 0 1020.5 0.1 60
2019-11-17 00:00:00 14.2 9 Oeste 17 Noroeste 0 1020.3 0.3 56
2019-11-16 23:00:00 14.1 10 Oeste 18 Oeste 0 1020.7 1.1 63
2019-11-16 22:00:00 14.2 10 Oeste 21 Oeste 0 1020.4 1.1 63
2019-11-16 21:00:00 13.8 12 Oeste 25 Oeste 0 1020 1.1 61
2019-11-16 20:00:00 13.8 13 Oeste 22 Noroeste 0 1019.6 0.8 58
2019-11-16 19:00:00 13.4 12 Oeste 20 Noroeste 0 1019.3 0.6 59
2019-11-16 18:00:00 13.2 11 Oeste 21 Noroeste 0 1018.9 0.6 60
2019-11-16 17:00:00 13.3 13 Oeste 23 Noroeste 0 1018.8 0.8 60
2019-11-16 16:00:00 13 16 Oeste 26 Oeste 0 1018.7 0.3 61
2019-11-16 15:00:00 13.2 15 Oeste 24 Oeste 0 1018.3 -0.3 62
2019-11-16 14:00:00 13.1 12 Oeste 19 Oeste 0 1018 -0.2 60
2019-11-16 13:00:00 12.1 10 Norte 17 Noroeste 0 1018.4 0.7 61
2019-11-16 12:00:00 11.4 9 Noroeste 17 Norte 0 1018.6 2.3 60
2019-11-16 11:00:00 10.8 15 Norte 22 Norte 0 1018.2 2.8 67
2019-11-16 10:00:00 9.1 13 Norte 20 Norte 0 1017.7 3.2 76
2019-11-16 09:00:00 8.7 13 Norte 18 Norte 0 1016.3 2.8 76
2019-11-16 08:00:00 8.9 13 Norte 19 Nordeste 0 1015.4 2.4 76
2019-11-16 07:00:00 9.4 15 Norte 31 Norte 0 1014.5 1.9 73
2019-11-16 06:00:00 10.7 19 Noroeste 27 Norte 0 1013.5 1.1 78
2019-11-16 05:00:00 11 19 Noroeste 30 Noroeste 0 1013 0.6 73
2019-11-16 04:00:00 10.9 22 Noroeste 33 Noroeste 0 1012.6 0.7 74
2019-11-16 03:00:00 11.2 21 Noroeste 39 Noroeste 0 1012.4 0.4 68
2019-11-16 02:00:00 11.6 22 Noroeste 37 Noroeste 0 1012.4 0.8 66
2019-11-16 01:00:00 11.9 23 Noroeste 37 Noroeste 0 1011.9 1.1 61
2019-11-16 00:00:00 12.5 25 Noroeste 40 Noroeste 0 1012 1.7 57
2019-11-15 23:00:00 12.9 27 Noroeste 41 Noroeste 0 1011.6 1.5 56
2019-11-15 22:00:00 13.3 28 Noroeste 43 Noroeste 0 1010.8 0.9 54
2019-11-15 21:00:00 13.8 26 Noroeste 40 Noroeste 0 1010.3 0.6 50
2019-11-15 20:00:00 13.9 19 Noroeste 36 Noroeste 0 1010.1 0.5 49
2019-11-15 19:00:00 14.1 21 Noroeste 37 Oeste 0 1009.9 0.5 52
2019-11-15 18:00:00 14.1 22 Noroeste 39 Oeste 0 1009.7 0.2 53
2019-11-15 17:00:00 14.3 24 Noroeste 39 Noroeste 0 1009.6 -0.5 50
2019-11-15 16:00:00 14.2 23 Noroeste 43 Oeste 0 1009.4 -1.5 50
2019-11-15 15:00:00 13.7 27 Noroeste 41 Noroeste 0 1009.5 -2.1 53
2019-11-15 14:00:00 13.3 25 Noroeste 40 Noroeste 0 1010.1 -1.8 58
2019-11-15 13:00:00 13 23 Noroeste 40 Oeste 0 1010.9 -0.9 60
2019-11-15 12:00:00 12.9 23 Noroeste 41 Norte 0 1011.6 0 62
2019-11-15 11:00:00 12.8 23 Noroeste 40 Noroeste 0 1011.9 1.1 62
2019-11-15 10:00:00 12.7 23 Noroeste 42 Noroeste 0 1011.8 1.2 62
2019-11-15 09:00:00 12.7 22 Noroeste 39 Noroeste 0 1011.6 0.9 60
2019-11-15 08:00:00 12.8 20 Noroeste 41 Noroeste 0 1010.8 0.1 63
2019-11-15 07:00:00 13 24 Noroeste 41 Noroeste 0 1010.6 -0.5 59
2019-11-15 06:00:00 13.1 23 Noroeste 39 Oeste 0 1010.7 -0.7 62
2019-11-15 05:00:00 13.2 22 Noroeste 41 Noroeste 0 1010.7 -0.8 60
2019-11-15 04:00:00 13.3 21 Noroeste 39 Noroeste 0 1011.1 -0.7 65
2019-11-15 03:00:00 13.9 22 Noroeste 38 Noroeste 0 1011.4 -0.6 62
2019-11-15 02:00:00 14.1 19 Noroeste 41 Noroeste 0 1011.5 -0.5 67
2019-11-15 01:00:00 14.4 23 Noroeste 39 Noroeste 0 1011.8 -0.1 67
2019-11-15 00:00:00 14.6 25 Noroeste 37 Noroeste 0 1012 -0.2 65
2019-11-14 23:00:00 14.6 23 Noroeste 42 Oeste 0 1012 0 67
2019-11-14 22:00:00 14.4 21 Noroeste 34 Noroeste 0 1011.9 0.4 66
2019-11-14 21:00:00 14.5 26 Noroeste 44 Noroeste 0 1012.2 1.1 69
2019-11-14 20:00:00 14.5 27 Noroeste 49 Noroeste 0 1012 0.9 65
2019-11-14 19:00:00 14.8 23 Noroeste 36 Noroeste 0 1011.5 0.6 66
2019-11-14 18:00:00 15 17 Noroeste 35 Noroeste 0 1011.1 -0.2 70
2019-11-14 17:00:00 14.9 23 Noroeste 39 Noroeste 0 1011.1 -0.6 71
2019-11-14 16:00:00 14.7 24 Noroeste 39 Oeste 0 1010.9 -1.1 73
2019-11-14 15:00:00 14.3 24 Noroeste 52 Noroeste 0 1011.3 -1.6 75
2019-11-14 14:00:00 13 24 Noroeste 58 Noroeste 0.7 1011.7 -1.6 90
2019-11-14 13:00:00 15.3 17 Oeste 42 Noroeste 0.5 1012 -1.5 86
2019-11-14 12:00:00 15.1 27 Noroeste 42 Noroeste 0.3 1012.9 -1.1 90
2019-11-14 11:00:00 17 18 Oeste 31 Oeste 0 1013.3 -0.7 75
2019-11-14 10:00:00 17 16 Sudoeste 30 Sudoeste 0 1013.5 -0.8 71
2019-11-14 09:00:00 15.9 19 Oeste 29 Oeste 0 1014 -0.3 71
2019-11-14 08:00:00 15.1 14 Oeste 27 Noroeste 0 1014 -0.7 71
2019-11-14 07:00:00 14.9 14 Oeste 24 Oeste 0 1014.3 -0.6 77
2019-11-14 06:00:00 15.2 14 Noroeste 27 Noroeste 0 1014.3 -1.3 75
2019-11-14 05:00:00 15 13 Noroeste 26 Noroeste 0 1014.7 -1.5 75
2019-11-14 04:00:00 15.3 13 Noroeste 23 Norte 0 1014.9 -1.6 74
2019-11-14 03:00:00 15.4 16 Noroeste 28 Noroeste 0 1015.6 -0.7 80
2019-11-14 02:00:00 15.8 14 Noroeste 24 Oeste 0 1016.2 -1 84
2019-11-14 01:00:00 16.5 15 Noroeste 24 Oeste 0 1016.5 -0.1 85
2019-11-14 00:00:00 16.9 13 Oeste 22 Sudoeste 0 1016.3 0 90
2019-11-13 23:00:00 17.2 13 Oeste 26 Sudoeste 0 1017.2 0.4 89
2019-11-13 22:00:00 17 12 Sudoeste 24 Oeste 0 1016.6 -0.1 88
2019-11-13 21:00:00 17.1 13 Sudoeste 24 Sudoeste 0 1016.3 -0.1 88
2019-11-13 20:00:00 17.5 14 Oeste 24 Oeste 0 1016.8 0.6 86
2019-11-13 19:00:00 17.3 12 Oeste 24 Oeste 0 1016.7 0.5 90
2019-11-13 18:00:00 17.8 15 Oeste 28 Sudoeste 0 1016.4 0.1 88
2019-11-13 17:00:00 19 13 Oeste 28 Oeste 0 1016.2 -0.5 83
2019-11-13 16:00:00 19.2 13 Oeste 27 Oeste 0 1016.2 -1 81
2019-11-13 15:00:00 19 17 Oeste 28 Oeste 0 1016.3 -1.4 81
2019-11-13 14:00:00 18.8 16 Oeste 32 Sudoeste 0 1016.7 -0.9 79
2019-11-13 13:00:00 18.9 18 Oeste 29 Oeste 0 1017.2 0.2 76
2019-11-13 12:00:00 18.9 16 Oeste 27 Sudoeste 0 1017.7 1.1 71
2019-11-13 11:00:00 17.7 12 Oeste 22 Sudoeste 0 1017.6 1.2 83
2019-11-13 10:00:00 17.3 11 Sudoeste 26 Oeste 0 1017 0.8 81
2019-11-13 09:00:00 17 14 Oeste 24 Oeste 0 1016.6 0.5 86
2019-11-13 08:00:00 16.4 12 Oeste 23 Oeste 0 1016.4 0.3 90
2019-11-13 07:00:00 16.6 10 Oeste 18 Oeste 0 1016.2 -0.4 87
2019-11-13 06:00:00 16.7 11 Oeste 18 Oeste 0 1016.1 -1.1 86
2019-11-13 05:00:00 16.6 8 Oeste 18 Oeste 0 1016.1 -1.4 86
2019-11-13 04:00:00 16.5 12 Oeste 21 Oeste 0 1016.6 -1 83
2019-11-13 03:00:00 16.5 14 Oeste 22 Oeste 0 1017.2 -0.3 83
2019-11-13 02:00:00 16 8 Oeste 25 Noroeste 0 1017.5 -0.3 82
2019-11-13 01:00:00 16 16 Noroeste 29 Noroeste 0 1017.6 0.3 76
2019-11-13 00:00:00 16.1 19 Noroeste 31 Noroeste 0 1017.5 0.3 74
2019-11-12 23:00:00 16.2 15 Noroeste 32 Noroeste 0 1017.8 0.6 75
2019-11-12 22:00:00 16.8 19 Noroeste 32 Noroeste 0 1017.3 0.2 71
2019-11-12 21:00:00 17.1 20 Noroeste 31 Noroeste 0 1017.2 0.6 68
2019-11-12 20:00:00 16.5 16 Oeste 33 Oeste 0 1017.2 0.7 82
2019-11-12 19:00:00 16.4 18 Oeste 29 Oeste 0 1017.1 0.7 71
2019-11-12 18:00:00 16.8 15 Oeste 25 Oeste 0 1016.6 -0.4 68
2019-11-12 17:00:00 17.5 18 Noroeste 31 Noroeste 0 1016.5 -0.7 62
2019-11-12 16:00:00 17.1 17 Noroeste 32 Noroeste 0 1016.4 -1.3 61
2019-11-12 15:00:00 16.7 17 Noroeste 30 Noroeste 0 1017 -1.1 69
2019-11-12 14:00:00 16 17 Oeste 27 Oeste 0 1017.2 -0.9 76
2019-11-12 13:00:00 15.7 18 Noroeste 26 Noroeste 0 1017.7 -0.3 76
2019-11-12 12:00:00 15.4 17 Noroeste 27 Norte 0 1018.1 0.7 80
2019-11-12 11:00:00 14.6 19 Noroeste 27 Norte 0 1018.1 0.9 83
2019-11-12 10:00:00 13.9 16 Norte 22 Noroeste 0 1018 1.4 89
2019-11-12 09:00:00 13.3 14 Norte 22 Norte 0 1017.4 1.3 89
2019-11-12 08:00:00 13.7 18 Norte 26 Norte 0 1017.2 0.8 89
2019-11-12 07:00:00 13.7 14 Noroeste 23 Noroeste 0 1016.6 0 87
2019-11-12 06:00:00 14.5 15 Noroeste 18 Noroeste 0 1016.1 -0.5 81
2019-11-12 05:00:00 14.6 13 Norte 23 Norte 0 1016.4 -0.4 82
2019-11-12 04:00:00 15 20 Norte 28 Noroeste 0 1016.6 -0.9 83
2019-11-12 03:00:00 15.3 22 Noroeste 37 Noroeste 0 1016.6 -0.7 83
2019-11-12 02:00:00 15.6 19 Noroeste 31 Noroeste 0 1016.8 -0.9 79
2019-11-12 01:00:00 16.5 18 Noroeste 29 Noroeste 0 1017.5 -0.2 80
2019-11-12 00:00:00 17.1 17 Noroeste 28 Noroeste 0 1017.3 0.2 79
2019-11-11 23:00:00 17.3 14 Noroeste 22 Noroeste 0 1017.7 0.7 91
2019-11-11 22:00:00 17.3 13 Oeste 22 Oeste 0 1017.7 0.3 93
2019-11-11 21:00:00 17.3 13 Oeste 21 Noroeste 0 1017.1 -0.2 90
2019-11-11 20:00:00 17.5 12 Oeste 27 Oeste 0 1017 -0.2 90
2019-11-11 19:00:00 17.8 17 Oeste 30 Oeste 0 1017.4 -0.1 87
2019-11-11 18:00:00 17.7 15 Oeste 23 Oeste 0 1017.3 -0.8 88
2019-11-11 17:00:00 17.7 13 Oeste 23 Oeste 0 1017.2 -1.4 86
2019-11-11 16:00:00 17.8 12 Oeste 27 Oeste 0 1017.5 -1.9 83
2019-11-11 15:00:00 17.3 7 Oeste 18 Noroeste 0 1018.1 -1.8 87
2019-11-11 14:00:00 16.9 9 Oeste 16 Oeste 0 1018.6 -2.1 87
2019-11-11 13:00:00 16.6 6 Sudoeste 15 Sur 0 1019.4 -1.2 90
2019-11-11 12:00:00 15.9 5 Sur 12 Sudoeste 0 1019.9 -0.5 90
2019-11-11 11:00:00 15.2 5 Sur 11 Sur 0 1020.7 0.5 92
2019-11-11 10:00:00 14.9 0 Calma 8 Sur 0 1020.6 0.4 91
2019-11-11 09:00:00 14.5 4 Norte 9 Noroeste 0 1020.4 0 91
2019-11-11 08:00:00 14.2 7 Noroeste 13 Norte 0 1020.2 -0.4 93
2019-11-11 07:00:00 13.6 7 Norte 18 Norte 0.1 1020.2 -0.6 95
2019-11-11 06:00:00 13.9 16 Norte 20 Norte 0 1020.4 -1.4 93
2019-11-11 05:00:00 13.9 15 Noroeste 28 Noroeste 0 1020.6 -1.2 91
2019-11-11 04:00:00 14.4 21 Noroeste 33 Oeste 0 1020.8 -1.4 91
2019-11-11 03:00:00 15.4 19 Noroeste 31 Noroeste 0 1021.8 -0.5 81
2019-11-11 02:00:00 15.7 21 Noroeste 38 Noroeste 0 1021.8 -0.6 76
2019-11-11 01:00:00 15.6 25 Noroeste 48 Noroeste 0 1022.2 0.6 75
2019-11-11 00:00:00 15.5 24 Noroeste 41 Noroeste 0 1022.3 0.7 72
2019-11-10 23:00:00 15.7 20 Noroeste 40 Noroeste 0 1022.4 0.6 70
2019-11-10 22:00:00 16.2 21 Noroeste 43 Noroeste 0 1021.6 0.1 70
2019-11-10 21:00:00 16.8 24 Noroeste 39 Noroeste 0 1021.6 0.8 60
2019-11-10 20:00:00 17 27 Noroeste 43 Noroeste 0 1021.8 0.7 60
2019-11-10 19:00:00 17.3 31 Noroeste 53 Noroeste 0 1021.5 1 57
2019-11-10 18:00:00 17.4 26 Noroeste 43 Noroeste 0 1020.8 0.1 66
2019-11-10 17:00:00 17.4 22 Noroeste 52 Noroeste 0 1021.1 0.1 58
2019-11-10 16:00:00 17.6 24 Noroeste 49 Noroeste 0 1020.5 -1 51
2019-11-10 15:00:00 17.2 28 Noroeste 44 Noroeste 0 1020.7 -1.5 59
2019-11-10 14:00:00 16.8 29 Noroeste 41 Noroeste 0 1021 -1.6 61
2019-11-10 13:00:00 15.9 24 Noroeste 39 Noroeste 0 1021.5 -1 65
2019-11-10 12:00:00 15.6 20 Noroeste 32 Noroeste 0 1022.2 -0.1 69
2019-11-10 11:00:00 15.2 18 Noroeste 37 Noroeste 0 1022.6 1.4 68
2019-11-10 10:00:00 14.8 26 Noroeste 45 Noroeste 0 1022.5 1.7 68
2019-11-10 09:00:00 14.5 29 Noroeste 41 Noroeste 0 1022.3 1.5 72
2019-11-10 08:00:00 14.8 21 Noroeste 32 Noroeste 0 1021.2 0.1 74
2019-11-10 07:00:00 14.8 16 Noroeste 39 Noroeste 0 1020.8 -0.1 75
2019-11-10 06:00:00 14.6 28 Noroeste 42 Noroeste 0 1020.8 -0.2 73
2019-11-10 05:00:00 15 22 Noroeste 42 Noroeste 0 1021.1 0.2 71
2019-11-10 04:00:00 15.5 24 Noroeste 43 Noroeste 0 1020.9 -0.6 68
2019-11-10 03:00:00 16.6 19 Noroeste 37 Noroeste 0 1021 -1.3 68
2019-11-10 02:00:00 17.3 26 Noroeste 38 Noroeste 0 1020.9 -1.6 84
2019-11-10 01:00:00 16.8 19 Oeste 35 Oeste 0 1021.5 -1 91
2019-11-10 00:00:00 17.5 18 Oeste 32 Oeste 0 1022.3 -0.7 78